sensor_id;sensor_type;location;lat;lon;timestamp;pressure;altitude;pressure_sealevel;temperature;humidity
36190;BME280;22232;50.914;13.858;2022-12-18T00:01:26;99214.44;;;-7.79;100.00
36190;BME280;22232;50.914;13.858;2022-12-18T00:03:55;99216.63;;;-7.72;100.00
36190;BME280;22232;50.914;13.858;2022-12-18T00:06:25;99213.34;;;-7.42;100.00
36190;BME280;22232;50.914;13.858;2022-12-18T00:08:55;99213.16;;;-7.39;100.00
36190;BME280;22232;50.914;13.858;2022-12-18T00:11:27;99210.31;;;-7.50;100.00
36190;BME280;22232;50.914;13.858;2022-12-18T00:13:56;99214.66;;;-7.51;100.00
36190;BME280;22232;50.914;13.858;2022-12-18T00:16:25;99226.19;;;-7.56;100.00
36190;BME280;22232;50.914;13.858;2022-12-18T00:18:55;99228.09;;;-7.60;100.00
36190;BME280;22232;50.914;13.858;2022-12-18T00:21:27;99236.59;;;-7.74;100.00
36190;BME280;22232;50.914;13.858;2022-12-18T00:23:55;99236.19;;;-7.82;100.00
36190;BME280;22232;50.914;13.858;2022-12-18T00:26:33;99242.34;;;-7.85;100.00
36190;BME280;22232;50.914;13.858;2022-12-18T00:29:12;99242.84;;;-7.78;100.00
36190;BME280;22232;50.914;13.858;2022-12-18T00:31:43;99237.00;;;-7.81;100.00
36190;BME280;22232;50.914;13.858;2022-12-18T00:34:12;99233.19;;;-7.92;100.00
36190;BME280;22232;50.914;13.858;2022-12-18T00:36:40;99245.00;;;-7.86;100.00
36190;BME280;22232;50.914;13.858;2022-12-18T00:39:10;99237.00;;;-7.81;100.00
36190;BME280;22232;50.914;13.858;2022-12-18T00:41:38;99251.63;;;-7.80;100.00
36190;BME280;22232;50.914;13.858;2022-12-18T00:44:25;99254.97;;;-7.78;100.00
36190;BME280;22232;50.914;13.858;2022-12-18T00:46:52;99250.78;;;-7.81;100.00
36190;BME280;22232;50.914;13.858;2022-12-18T00:49:20;99264.66;;;-7.82;100.00
36190;BME280;22232;50.914;13.858;2022-12-18T00:51:48;99261.38;;;-7.86;100.00
36190;BME280;22232;50.914;13.858;2022-12-18T00:54:17;99266.88;;;-7.92;100.00
36190;BME280;22232;50.914;13.858;2022-12-18T00:56:44;99261.09;;;-7.97;100.00
36190;BME280;22232;50.914;13.858;2022-12-18T00:59:17;99250.97;;;-8.01;100.00
36190;BME280;22232;50.914;13.858;2022-12-18T01:01:45;99254.63;;;-8.05;100.00
36190;BME280;22232;50.914;13.858;2022-12-18T01:04:14;99256.56;;;-8.09;100.00
36190;BME280;22232;50.914;13.858;2022-12-18T01:06:45;99264.31;;;-8.09;100.00
36190;BME280;22232;50.914;13.858;2022-12-18T01:09:13;99263.41;;;-8.08;100.00
36190;BME280;22232;50.914;13.858;2022-12-18T01:11:40;99254.69;;;-8.07;100.00
36190;BME280;22232;50.914;13.858;2022-12-18T01:14:10;99262.47;;;-8.07;100.00
36190;BME280;22232;50.914;13.858;2022-12-18T01:16:38;99270.38;;;-8.10;100.00
36190;BME280;22232;50.914;13.858;2022-12-18T01:19:05;99273.22;;;-8.15;100.00
36190;BME280;22232;50.914;13.858;2022-12-18T01:21:33;99268.09;;;-8.16;100.00
36190;BME280;22232;50.914;13.858;2022-12-18T01:24:04;99275.03;;;-8.17;100.00
36190;BME280;22232;50.914;13.858;2022-12-18T01:26:31;99265.53;;;-8.16;100.00
36190;BME280;22232;50.914;13.858;2022-12-18T01:28:59;99271.63;;;-8.17;100.00
36190;BME280;22232;50.914;13.858;2022-12-18T01:31:29;99284.47;;;-8.16;100.00
36190;BME280;22232;50.914;13.858;2022-12-18T01:33:59;99277.41;;;-8.12;100.00
36190;BME280;22232;50.914;13.858;2022-12-18T01:36:29;99279.09;;;-8.11;100.00
36190;BME280;22232;50.914;13.858;2022-12-18T01:39:10;99271.09;;;-8.24;100.00
36190;BME280;22232;50.914;13.858;2022-12-18T01:41:41;99283.81;;;-8.37;100.00
36190;BME280;22232;50.914;13.858;2022-12-18T01:45:00;99279.88;;;-8.44;100.00
36190;BME280;22232;50.914;13.858;2022-12-18T01:50:17;99266.88;;;-8.42;100.00
36190;BME280;22232;50.914;13.858;2022-12-18T01:53:33;99276.25;;;-8.40;100.00
36190;BME280;22232;50.914;13.858;2022-12-18T01:55:49;99281.22;;;-8.37;100.00
36190;BME280;22232;50.914;13.858;2022-12-18T01:58:20;99275.13;;;-8.36;100.00
36190;BME280;22232;50.914;13.858;2022-12-18T02:00:50;99279.38;;;-8.35;100.00
36190;BME280;22232;50.914;13.858;2022-12-18T02:03:19;99278.50;;;-8.34;100.00
36190;BME280;22232;50.914;13.858;2022-12-18T02:08:27;99283.72;;;-8.35;100.00
36190;BME280;22232;50.914;13.858;2022-12-18T02:16:46;99289.22;;;-8.41;100.00
36190;BME280;22232;50.914;13.858;2022-12-18T02:19:42;99279.81;;;-8.42;100.00
36190;BME280;22232;50.914;13.858;2022-12-18T02:22:26;99279.88;;;-8.44;100.00
36190;BME280;22232;50.914;13.858;2022-12-18T02:28:04;99283.38;;;-8.45;100.00
36190;BME280;22232;50.914;13.858;2022-12-18T02:30:35;99286.78;;;-8.44;100.00
36190;BME280;22232;50.914;13.858;2022-12-18T02:33:07;99281.72;;;-8.46;100.00
36190;BME280;22232;50.914;13.858;2022-12-18T02:35:40;99292.13;;;-8.47;100.00
36190;BME280;22232;50.914;13.858;2022-12-18T02:38:09;99299.97;;;-8.49;100.00
36190;BME280;22232;50.914;13.858;2022-12-18T02:40:39;99293.03;;;-8.48;100.00
36190;BME280;22232;50.914;13.858;2022-12-18T02:43:13;99300.81;;;-8.48;100.00
36190;BME280;22232;50.914;13.858;2022-12-18T02:45:53;99292.81;;;-8.44;100.00
36190;BME280;22232;50.914;13.858;2022-12-18T02:48:31;99285.53;;;-8.37;100.00
36190;BME280;22232;50.914;13.858;2022-12-18T02:51:21;99287.91;;;-8.33;100.00
36190;BME280;22232;50.914;13.858;2022-12-18T02:54:03;99288.13;;;-8.37;100.00
36190;BME280;22232;50.914;13.858;2022-12-18T02:56:41;99286.78;;;-8.44;100.00
36190;BME280;22232;50.914;13.858;2022-12-18T02:59:15;99292.94;;;-8.47;100.00
36190;BME280;22232;50.914;13.858;2022-12-18T03:04:39;99293.88;;;-8.48;100.00
36190;BME280;22232;50.914;13.858;2022-12-18T03:07:17;99286.03;;;-8.46;100.00
36190;BME280;22232;50.914;13.858;2022-12-18T03:09:50;99281.72;;;-8.46;100.00
36190;BME280;22232;50.914;13.858;2022-12-18T03:12:31;99294.41;;;-8.41;100.00
36190;BME280;22232;50.914;13.858;2022-12-18T03:16:07;99292.66;;;-8.41;100.00
36190;BME280;22232;50.914;13.858;2022-12-18T03:18:35;99296.84;;;-8.38;100.00
36190;BME280;22232;50.914;13.858;2022-12-18T03:21:06;99288.75;;;-8.32;100.00
36190;BME280;22232;50.914;13.858;2022-12-18T03:23:48;99288.75;;;-8.32;100.00
36190;BME280;22232;50.914;13.858;2022-12-18T03:26:21;99292.41;;;-8.36;100.00
36190;BME280;22232;50.914;13.858;2022-12-18T03:28:56;99287.41;;;-8.39;100.00
36190;BME280;22232;50.914;13.858;2022-12-18T03:31:29;99292.41;;;-8.36;100.00
36190;BME280;22232;50.914;13.858;2022-12-18T03:34:06;99303.34;;;-8.31;100.00
36190;BME280;22232;50.914;13.858;2022-12-18T03:36:42;99301.63;;;-8.31;100.00
36190;BME280;22232;50.914;13.858;2022-12-18T03:39:10;99305.78;;;-8.28;100.00
36190;BME280;22232;50.914;13.858;2022-12-18T03:41:51;99298.94;;;-8.29;100.00
36190;BME280;22232;50.914;13.858;2022-12-18T03:47:34;99295.69;;;-8.15;100.00
36190;BME280;22232;50.914;13.858;2022-12-18T03:50:10;99297.41;;;-8.16;100.00
36190;BME280;22232;50.914;13.858;2022-12-18T03:52:57;99302.59;;;-8.16;100.00
36190;BME280;22232;50.914;13.858;2022-12-18T03:55:31;99308.84;;;-8.20;100.00
36190;BME280;22232;50.914;13.858;2022-12-18T03:58:06;99305.78;;;-8.28;100.00
36190;BME280;22232;50.914;13.858;2022-12-18T04:00:48;99312.81;;;-8.30;100.00
36190;BME280;22232;50.914;13.858;2022-12-18T04:03:18;99318.03;;;-8.32;100.00
36190;BME280;22232;50.914;13.858;2022-12-18T04:05:54;99313.16;;;-8.38;100.00
36190;BME280;22232;50.914;13.858;2022-12-18T04:08:23;99315.94;;;-8.41;100.00
36190;BME280;22232;50.914;13.858;2022-12-18T04:11:01;99308.28;;;-8.42;100.00
36190;BME280;22232;50.914;13.858;2022-12-18T04:13:35;99310.84;;;-8.42;100.00
36190;BME280;22232;50.914;13.858;2022-12-18T04:16:07;99310.09;;;-8.44;100.00
36190;BME280;22232;50.914;13.858;2022-12-18T04:18:40;99319.75;;;-8.48;100.00
36190;BME280;22232;50.914;13.858;2022-12-18T04:21:09;99316.38;;;-8.50;100.00
36190;BME280;22232;50.914;13.858;2022-12-18T04:23:37;99317.50;;;-8.56;100.00
36190;BME280;22232;50.914;13.858;2022-12-18T04:26:06;99317.50;;;-8.56;100.00
36190;BME280;22232;50.914;13.858;2022-12-18T04:28:52;99322.53;;;-8.52;100.00
36190;BME280;22232;50.914;13.858;2022-12-18T04:31:21;99322.53;;;-8.52;100.00
36190;BME280;22232;50.914;13.858;2022-12-18T04:33:49;99331.22;;;-8.53;100.00
36190;BME280;22232;50.914;13.858;2022-12-18T04:36:17;99332.28;;;-8.58;100.00
36190;BME280;22232;50.914;13.858;2022-12-18T04:38:45;99327.84;;;-8.56;100.00
36190;BME280;22232;50.914;13.858;2022-12-18T04:41:15;99333.13;;;-8.57;100.00
36190;BME280;22232;50.914;13.858;2022-12-18T04:43:46;99331.28;;;-8.55;100.00
36190;BME280;22232;50.914;13.858;2022-12-18T04:46:14;99331.00;;;-8.49;100.00
36190;BME280;22232;50.914;13.858;2022-12-18T04:48:42;99337.75;;;-8.46;100.00
36190;BME280;22232;50.914;13.858;2022-12-18T04:51:12;99329.56;;;-8.55;100.00
36190;BME280;22232;50.914;13.858;2022-12-18T04:53:39;99338.22;;;-8.56;100.00
36190;BME280;22232;50.914;13.858;2022-12-18T04:56:10;99340.25;;;-8.62;100.00
36190;BME280;22232;50.914;13.858;2022-12-18T04:58:40;99349.47;;;-8.57;100.00
36190;BME280;22232;50.914;13.858;2022-12-18T05:01:08;99344.22;;;-8.55;100.00
36190;BME280;22232;50.914;13.858;2022-12-18T05:03:36;99336.44;;;-8.55;100.00
36190;BME280;22232;50.914;13.858;2022-12-18T05:10:17;99338.16;;;-8.54;100.00
36190;BME280;22232;50.914;13.858;2022-12-18T05:12:45;99335.47;;;-8.52;100.00
36190;BME280;22232;50.914;13.858;2022-12-18T05:15:31;99340.72;;;-8.54;100.00
36190;BME280;22232;50.914;13.858;2022-12-18T05:17:59;99342.41;;;-8.53;100.00
36190;BME280;22232;50.914;13.858;2022-12-18T05:20:28;99346.88;;;-8.57;100.00
36190;BME280;22232;50.914;13.858;2022-12-18T05:22:56;99345.22;;;-8.58;100.00
36190;BME280;22232;50.914;13.858;2022-12-18T05:25:23;99344.59;;;-8.63;100.00
36190;BME280;22232;50.914;13.858;2022-12-18T05:27:51;99337.81;;;-8.65;100.00
36190;BME280;22232;50.914;13.858;2022-12-18T05:30:18;99336.28;;;-8.69;100.00
36190;BME280;22232;50.914;13.858;2022-12-18T05:32:46;99336.44;;;-8.72;100.00
36190;BME280;22232;50.914;13.858;2022-12-18T05:35:13;99343.13;;;-8.68;100.00
36190;BME280;22232;50.914;13.858;2022-12-18T05:37:41;99344.03;;;-8.69;100.00
36190;BME280;22232;50.914;13.858;2022-12-18T05:40:10;99342.16;;;-8.66;100.00
36190;BME280;22232;50.914;13.858;2022-12-18T05:42:38;99347.31;;;-8.66;100.00
36190;BME280;22232;50.914;13.858;2022-12-18T05:45:06;99348.94;;;-8.63;100.00
36190;BME280;22232;50.914;13.858;2022-12-18T05:47:34;99350.53;;;-8.61;100.00
36190;BME280;22232;50.914;13.858;2022-12-18T05:50:02;99354.69;;;-8.58;100.00
36190;BME280;22232;50.914;13.858;2022-12-18T05:52:30;99349.63;;;-8.60;100.00
36190;BME280;22232;50.914;13.858;2022-12-18T05:54:57;99359.47;;;-8.68;100.00
36190;BME280;22232;50.914;13.858;2022-12-18T05:57:26;99355.50;;;-8.75;100.00
36190;BME280;22232;50.914;13.858;2022-12-18T05:59:53;99355.94;;;-8.84;100.00
36190;BME280;22232;50.914;13.858;2022-12-18T06:02:21;99360.28;;;-8.85;100.00
36190;BME280;22232;50.914;13.858;2022-12-18T06:04:49;99352.66;;;-8.88;100.00
36190;BME280;22232;50.914;13.858;2022-12-18T06:07:17;99360.34;;;-8.86;100.00
36190;BME280;22232;50.914;13.858;2022-12-18T06:09:44;99358.16;;;-8.95;100.00
36190;BME280;22232;50.914;13.858;2022-12-18T06:12:12;99372.06;;;-8.98;100.00
36190;BME280;22232;50.914;13.858;2022-12-18T06:14:39;99370.63;;;-9.04;100.00
36190;BME280;22232;50.914;13.858;2022-12-18T06:17:07;99372.84;;;-8.96;100.00
36190;BME280;22232;50.914;13.858;2022-12-18T06:19:35;99367.34;;;-8.88;100.00
36190;BME280;22232;50.914;13.858;2022-12-18T06:22:02;99368.63;;;-8.80;100.00
36190;BME280;22232;50.914;13.858;2022-12-18T06:24:30;99370.19;;;-8.75;100.00
36190;BME280;22232;50.914;13.858;2022-12-18T06:26:57;99374.16;;;-8.68;100.00
36190;BME280;22232;50.914;13.858;2022-12-18T06:29:25;99372.25;;;-8.65;100.00
36190;BME280;22232;50.914;13.858;2022-12-18T06:31:53;99376.41;;;-8.61;100.00
36190;BME280;22232;50.914;13.858;2022-12-18T06:34:20;99376.03;;;-8.53;100.00
36190;BME280;22232;50.914;13.858;2022-12-18T06:36:48;99374.13;;;-8.49;100.00
36190;BME280;22232;50.914;13.858;2022-12-18T06:39:16;99375.97;;;-8.51;100.00
36190;BME280;22232;50.914;13.858;2022-12-18T06:41:44;99393.31;;;-8.53;100.00
36190;BME280;22232;50.914;13.858;2022-12-18T06:44:11;99376.13;;;-8.55;100.00
36190;BME280;22232;50.914;13.858;2022-12-18T06:46:39;99387.16;;;-8.51;100.00
36190;BME280;22232;50.914;13.858;2022-12-18T06:49:07;99381.69;;;-8.45;100.00
36190;BME280;22232;50.914;13.858;2022-12-18T06:51:37;99377.19;;;-8.41;100.00
36190;BME280;22232;50.914;13.858;2022-12-18T06:54:04;99381.47;;;-8.40;100.00
36190;BME280;22232;50.914;13.858;2022-12-18T06:56:32;99386.78;;;-8.43;100.00
36190;BME280;22232;50.914;13.858;2022-12-18T06:59:00;99390.13;;;-8.41;100.00
36190;BME280;22232;50.914;13.858;2022-12-18T07:01:27;99396.50;;;-8.31;100.00
36190;BME280;22232;50.914;13.858;2022-12-18T07:03:56;99398.13;;;-8.28;100.00
36190;BME280;22232;50.914;13.858;2022-12-18T07:06:25;99400.66;;;-8.27;100.00
36190;BME280;22232;50.914;13.858;2022-12-18T07:08:53;99413.06;;;-8.34;100.00
36190;BME280;22232;50.914;13.858;2022-12-18T07:11:21;99412.88;;;-8.48;100.00
36190;BME280;22232;50.914;13.858;2022-12-18T07:13:49;99423.44;;;-8.52;100.00
36190;BME280;22232;50.914;13.858;2022-12-18T07:16:18;99414.25;;;-8.41;100.00
36190;BME280;22232;50.914;13.858;2022-12-18T07:18:54;99421.41;;;-8.28;100.00
36190;BME280;22232;50.914;13.858;2022-12-18T07:21:23;99419.22;;;-8.19;100.00
36190;BME280;22232;50.914;13.858;2022-12-18T07:23:50;99412.72;;;-8.09;100.00
36190;BME280;22232;50.914;13.858;2022-12-18T07:26:20;99402.34;;;-7.91;100.00
36190;BME280;22232;50.914;13.858;2022-12-18T07:28:49;99408.16;;;-7.69;100.00
36190;BME280;22232;50.914;13.858;2022-12-18T07:31:21;99410.50;;;-7.47;100.00
36190;BME280;22232;50.914;13.858;2022-12-18T07:33:50;99411.03;;;-7.40;100.00
36190;BME280;22232;50.914;13.858;2022-12-18T07:36:18;99408.66;;;-7.27;100.00
36190;BME280;22232;50.914;13.858;2022-12-18T07:38:50;99410.31;;;-7.09;100.00
36190;BME280;22232;50.914;13.858;2022-12-18T07:41:19;99409.19;;;-6.72;100.00
36190;BME280;22232;50.914;13.858;2022-12-18T07:43:47;99420.84;;;-6.47;100.00
36190;BME280;22232;50.914;13.858;2022-12-18T07:46:16;99420.66;;;-6.28;100.00
36190;BME280;22232;50.914;13.858;2022-12-18T07:48:44;99419.50;;;-5.92;100.00
36190;BME280;22232;50.914;13.858;2022-12-18T07:51:16;99412.78;;;-5.66;100.00
36190;BME280;22232;50.914;13.858;2022-12-18T07:53:45;99420.81;;;-5.55;100.00
36190;BME280;22232;50.914;13.858;2022-12-18T07:56:15;99423.47;;;-5.26;100.00
36190;BME280;22232;50.914;13.858;2022-12-18T07:58:59;99428.88;;;-5.01;100.00
36190;BME280;22232;50.914;13.858;2022-12-18T08:01:26;99430.66;;;-5.01;100.00
36190;BME280;22232;50.914;13.858;2022-12-18T08:03:54;99430.84;;;-5.04;100.00
36190;BME280;22232;50.914;13.858;2022-12-18T08:06:23;99437.06;;;-4.93;100.00
36190;BME280;22232;50.914;13.858;2022-12-18T08:08:55;99434.72;;;-5.12;100.00
36190;BME280;22232;50.914;13.858;2022-12-18T08:11:25;99423.13;;;-4.92;100.00
36190;BME280;22232;50.914;13.858;2022-12-18T08:13:53;99430.81;;;-4.90;100.00
36190;BME280;22232;50.914;13.858;2022-12-18T08:16:21;99432.44;;;-5.02;100.00
36190;BME280;22232;50.914;13.858;2022-12-18T08:18:51;99429.28;;;-4.93;100.00
36190;BME280;22232;50.914;13.858;2022-12-18T08:21:29;99419.28;;;-5.15;100.00
36190;BME280;22232;50.914;13.858;2022-12-18T08:23:59;99411.03;;;-5.07;100.00
36190;BME280;22232;50.914;13.858;2022-12-18T08:26:29;99416.34;;;-4.94;100.00
36190;BME280;22232;50.914;13.858;2022-12-18T08:28:58;99411.66;;;-4.75;100.00
36190;BME280;22232;50.914;13.858;2022-12-18T08:31:27;99402.75;;;-4.85;100.00
36190;BME280;22232;50.914;13.858;2022-12-18T08:33:56;99416.88;;;-4.75;100.00
36190;BME280;22232;50.914;13.858;2022-12-18T08:36:24;99410.31;;;-4.80;100.00
36190;BME280;22232;50.914;13.858;2022-12-18T08:38:53;99404.16;;;-4.94;100.00
36190;BME280;22232;50.914;13.858;2022-12-18T08:41:21;99402.88;;;-4.87;100.00
36190;BME280;22232;50.914;13.858;2022-12-18T08:43:49;99412.78;;;-4.93;100.00
36190;BME280;22232;50.914;13.858;2022-12-18T08:46:41;99413.91;;;-4.97;100.00
36190;BME280;22232;50.914;13.858;2022-12-18T08:49:09;99409.09;;;-5.03;100.00
36190;BME280;22232;50.914;13.858;2022-12-18T08:51:38;99419.03;;;-4.67;100.00
36190;BME280;22232;50.914;13.858;2022-12-18T08:54:06;99421.91;;;-4.72;100.00
36190;BME280;22232;50.914;13.858;2022-12-18T08:56:34;99423.13;;;-4.77;100.00
36190;BME280;22232;50.914;13.858;2022-12-18T08:59:02;99425.31;;;-4.57;100.00
36190;BME280;22232;50.914;13.858;2022-12-18T09:01:30;99427.16;;;-4.45;100.00
36190;BME280;22232;50.914;13.858;2022-12-18T09:03:58;99423.97;;;-4.35;100.00
36190;BME280;22232;50.914;13.858;2022-12-18T09:06:25;99427.84;;;-4.41;100.00
36190;BME280;22232;50.914;13.858;2022-12-18T09:08:53;99433.94;;;-4.28;100.00
36190;BME280;22232;50.914;13.858;2022-12-18T09:11:25;99429.19;;;-4.35;100.00
36190;BME280;22232;50.914;13.858;2022-12-18T09:13:55;99418.97;;;-4.39;100.00
36190;BME280;22232;50.914;13.858;2022-12-18T09:16:23;99416.91;;;-4.33;100.00
36190;BME280;22232;50.914;13.858;2022-12-18T09:18:59;99419.47;;;-4.46;100.00
36190;BME280;22232;50.914;13.858;2022-12-18T09:21:29;99424.16;;;-4.39;100.00
36190;BME280;22232;50.914;13.858;2022-12-18T09:23:59;99430.97;;;-4.36;100.00
36190;BME280;22232;50.914;13.858;2022-12-18T09:26:27;99436.53;;;-4.28;100.00
36190;BME280;22232;50.914;13.858;2022-12-18T09:28:55;99444.97;;;-4.10;100.00
36190;BME280;22232;50.914;13.858;2022-12-18T09:31:24;99449.16;;;-4.22;100.00
36190;BME280;22232;50.914;13.858;2022-12-18T09:33:52;99450.56;;;-4.16;100.00
36190;BME280;22232;50.914;13.858;2022-12-18T09:36:19;99455.47;;;-4.11;100.00
36190;BME280;22232;50.914;13.858;2022-12-18T09:38:48;99445.84;;;-3.97;100.00
36190;BME280;22232;50.914;13.858;2022-12-18T09:44:00;99458.59;;;-3.92;100.00
36190;BME280;22232;50.914;13.858;2022-12-18T09:46:37;99457.16;;;-3.83;100.00
36190;BME280;22232;50.914;13.858;2022-12-18T09:49:14;99445.63;;;-3.66;100.00
36190;BME280;22232;50.914;13.858;2022-12-18T09:54:30;99453.50;;;-4.08;100.00
36190;BME280;22232;50.914;13.858;2022-12-18T09:57:00;99458.22;;;-4.00;100.00
36190;BME280;22232;50.914;13.858;2022-12-18T09:59:35;99447.59;;;-3.97;100.00
36190;BME280;22232;50.914;13.858;2022-12-18T10:02:17;99443.34;;;-3.98;100.00
36190;BME280;22232;50.914;13.858;2022-12-18T10:05:11;99438.81;;;-4.09;100.00
36190;BME280;22232;50.914;13.858;2022-12-18T10:08:04;99429.72;;;-4.16;100.00
36190;BME280;22232;50.914;13.858;2022-12-18T10:10:41;99436.97;;;-4.21;100.00
36190;BME280;22232;50.914;13.858;2022-12-18T10:21:52;99407.19;;;-3.90;100.00
36190;BME280;22232;50.914;13.858;2022-12-18T10:24:34;99396.44;;;-3.98;100.00
36190;BME280;22232;50.914;13.858;2022-12-18T10:27:25;99399.22;;;-4.01;100.00
36190;BME280;22232;50.914;13.858;2022-12-18T10:29:53;99396.88;;;-3.92;100.00
36190;BME280;22232;50.914;13.858;2022-12-18T10:32:27;99392.28;;;-3.88;100.00
36190;BME280;22232;50.914;13.858;2022-12-18T10:34:57;99390.44;;;-3.73;100.00
36190;BME280;22232;50.914;13.858;2022-12-18T10:37:29;99385.69;;;-3.94;100.00
36190;BME280;22232;50.914;13.858;2022-12-18T10:40:14;99385.28;;;-3.87;100.00
36190;BME280;22232;50.914;13.858;2022-12-18T10:43:11;99382.88;;;-3.90;100.00
36190;BME280;22232;50.914;13.858;2022-12-18T10:45:39;99381.47;;;-3.69;100.00
36190;BME280;22232;50.914;13.858;2022-12-18T10:48:20;99372.47;;;-3.78;100.00
36190;BME280;22232;50.914;13.858;2022-12-18T10:50:50;99361.88;;;-3.62;100.00
36190;BME280;22232;50.914;13.858;2022-12-18T10:53:40;99364.19;;;-3.57;100.00
36190;BME280;22232;50.914;13.858;2022-12-18T10:56:10;99365.53;;;-3.64;100.00
36190;BME280;22232;50.914;13.858;2022-12-18T10:58:38;99369.50;;;-3.33;100.00
36190;BME280;22232;50.914;13.858;2022-12-18T11:01:13;99374.03;;;-3.22;100.00
36190;BME280;22232;50.914;13.858;2022-12-18T11:06:20;99367.72;;;-3.20;100.00
36190;BME280;22232;50.914;13.858;2022-12-18T11:09:04;99369.63;;;-3.22;100.00
36190;BME280;22232;50.914;13.858;2022-12-18T11:11:40;99371.06;;;-3.18;100.00
36190;BME280;22232;50.914;13.858;2022-12-18T11:14:20;99375.97;;;-3.26;100.00
36190;BME280;22232;50.914;13.858;2022-12-18T11:16:50;99374.53;;;-3.30;100.00
36190;BME280;22232;50.914;13.858;2022-12-18T11:19:39;99371.38;;;-3.48;100.00
36190;BME280;22232;50.914;13.858;2022-12-18T11:22:20;99367.13;;;-3.36;100.00
36190;BME280;22232;50.914;13.858;2022-12-18T11:25:20;99362.63;;;-3.34;100.00
36190;BME280;22232;50.914;13.858;2022-12-18T11:28:23;99364.78;;;-3.54;100.00
36190;BME280;22232;50.914;13.858;2022-12-18T11:33:54;99347.06;;;-3.74;100.00
36190;BME280;22232;50.914;13.858;2022-12-18T11:36:46;99345.47;;;-3.89;100.00
36190;BME280;22232;50.914;13.858;2022-12-18T11:39:19;99345.84;;;-3.96;100.00
36190;BME280;22232;50.914;13.858;2022-12-18T11:41:59;99341.78;;;-4.00;100.00
36190;BME280;22232;50.914;13.858;2022-12-18T11:45:00;99342.56;;;-3.72;100.00
36190;BME280;22232;50.914;13.858;2022-12-18T11:48:14;99339.75;;;-3.69;100.00
36190;BME280;22232;50.914;13.858;2022-12-18T11:53:12;99339.88;;;-3.71;100.00
36190;BME280;22232;50.914;13.858;2022-12-18T11:55:41;99340.69;;;-3.70;100.00
36190;BME280;22232;50.914;13.858;2022-12-18T12:03:53;99358.47;;;-4.02;100.00
36190;BME280;22232;50.914;13.858;2022-12-18T12:09:50;99356.81;;;-3.90;100.00
36190;BME280;22232;50.914;13.858;2022-12-18T12:21:20;99376.38;;;-4.38;100.00
36190;BME280;22232;50.914;13.858;2022-12-18T12:26:42;99376.50;;;-4.26;100.00
36190;BME280;22232;50.914;13.858;2022-12-18T12:38:11;99381.06;;;-4.57;100.00
36190;BME280;22232;50.914;13.858;2022-12-18T12:40:51;99388.06;;;-4.72;100.00
36190;BME280;22232;50.914;13.858;2022-12-18T12:43:42;99389.75;;;-4.71;100.00
36190;BME280;22232;50.914;13.858;2022-12-18T12:46:19;99397.44;;;-4.69;100.00
36190;BME280;22232;50.914;13.858;2022-12-18T12:48:52;99399.84;;;-4.66;100.00
36190;BME280;22232;50.914;13.858;2022-12-18T12:51:30;99401.56;;;-4.94;100.00
36190;BME280;22232;50.914;13.858;2022-12-18T12:54:00;99386.78;;;-4.93;100.00
36190;BME280;22232;50.914;13.858;2022-12-18T12:59:25;99381.50;;;-5.06;100.00
36190;BME280;22232;50.914;13.858;2022-12-18T13:02:22;99379.16;;;-4.96;100.00
36190;BME280;22232;50.914;13.858;2022-12-18T13:08:07;99383.38;;;-5.08;100.00
36190;BME280;22232;50.914;13.858;2022-12-18T13:10:38;99381.94;;;-5.28;100.00
36190;BME280;22232;50.914;13.858;2022-12-18T13:13:12;99376.66;;;-5.26;100.00
36190;BME280;22232;50.914;13.858;2022-12-18T13:16:06;99380.66;;;-5.21;100.00
36190;BME280;22232;50.914;13.858;2022-12-18T13:18:35;99380.38;;;-5.31;100.00
36190;BME280;22232;50.914;13.858;2022-12-18T13:23:51;99376.66;;;-5.41;100.00
36190;BME280;22232;50.914;13.858;2022-12-18T13:28:56;99382.88;;;-5.43;100.00
36190;BME280;22232;50.914;13.858;2022-12-18T13:37:42;99396.53;;;-5.40;100.00
36190;BME280;22232;50.914;13.858;2022-12-18T13:39:44;99389.84;;;-5.44;100.00
36190;BME280;22232;50.914;13.858;2022-12-18T13:48:20;99386.31;;;-5.43;100.00
36190;BME280;22232;50.914;13.858;2022-12-18T13:51:04;99383.25;;;-5.35;100.00
36190;BME280;22232;50.914;13.858;2022-12-18T13:53:37;99376.28;;;-5.35;100.00
36190;BME280;22232;50.914;13.858;2022-12-18T13:56:07;99369.78;;;-5.27;100.00
36190;BME280;22232;50.914;13.858;2022-12-18T13:58:35;99361.22;;;-5.30;100.00
36190;BME280;22232;50.914;13.858;2022-12-18T14:01:02;99364.75;;;-5.31;100.00
36190;BME280;22232;50.914;13.858;2022-12-18T14:03:32;99374.25;;;-5.44;100.00
36190;BME280;22232;50.914;13.858;2022-12-18T14:06:03;99371.00;;;-5.47;100.00
36190;BME280;22232;50.914;13.858;2022-12-18T14:08:36;99365.66;;;-5.60;100.00
36190;BME280;22232;50.914;13.858;2022-12-18T14:11:06;99372.91;;;-5.51;100.00
36190;BME280;22232;50.914;13.858;2022-12-18T14:13:41;99369.13;;;-5.60;100.00
36190;BME280;22232;50.914;13.858;2022-12-18T14:16:13;99375.50;;;-5.65;100.00
36190;BME280;22232;50.914;13.858;2022-12-18T14:18:45;99373.78;;;-5.81;100.00
36190;BME280;22232;50.914;13.858;2022-12-18T14:21:20;99371.28;;;-5.82;100.00
36190;BME280;22232;50.914;13.858;2022-12-18T14:23:48;99379.53;;;-5.76;100.00
36190;BME280;22232;50.914;13.858;2022-12-18T14:28:49;99385.69;;;-5.77;100.00
36190;BME280;22232;50.914;13.858;2022-12-18T14:31:21;99382.03;;;-5.88;100.00
36190;BME280;22232;50.914;13.858;2022-12-18T14:33:49;99367.38;;;-5.89;100.00
36190;BME280;22232;50.914;13.858;2022-12-18T14:36:22;99364.66;;;-5.88;100.00
36190;BME280;22232;50.914;13.858;2022-12-18T14:38:55;99362.44;;;-5.94;100.00
36190;BME280;22232;50.914;13.858;2022-12-18T14:41:24;99344.97;;;-6.06;100.00
36190;BME280;22232;50.914;13.858;2022-12-18T14:43:53;99340.53;;;-6.04;100.00
36190;BME280;22232;50.914;13.858;2022-12-18T14:46:37;99346.84;;;-6.08;100.00
36190;BME280;22232;50.914;13.858;2022-12-18T14:49:31;99354.63;;;-6.08;100.00
36190;BME280;22232;50.914;13.858;2022-12-18T14:52:01;99353.28;;;-6.15;100.00